createdAt,value
2018-11-21T00:00:24.887Z,17.47
2018-11-21T00:02:50.474Z,16.00
2018-11-21T00:05:15.680Z,16.73
2018-11-21T00:07:40.760Z,17.40
2018-11-21T00:10:08.395Z,17.50
2018-11-21T00:12:33.498Z,17.17
2018-11-21T00:14:58.593Z,18.60
2018-11-21T00:17:23.760Z,17.43
2018-11-21T00:19:48.824Z,18.10
2018-11-21T00:22:13.897Z,17.43
2018-11-21T00:24:58.137Z,17.77
2018-11-21T00:27:23.257Z,16.33
2018-11-21T00:29:48.376Z,18.27
2018-11-21T00:32:32.143Z,17.13
2018-11-21T00:34:57.270Z,17.53
2018-11-21T00:37:23.110Z,17.20
2018-11-21T00:39:48.201Z,17.87
2018-11-21T00:42:32.273Z,17.77
2018-11-21T00:44:57.355Z,18.50
2018-11-21T00:47:22.465Z,18.23
2018-11-21T00:49:47.538Z,18.30
2018-11-21T00:52:12.668Z,17.57
2018-11-21T00:54:56.699Z,18.37
2018-11-21T01:00:17.650Z,18.30
2018-11-21T01:02:42.763Z,18.10
2018-11-21T01:05:08.532Z,18.50
2018-11-21T01:07:33.621Z,18.70
2018-11-21T01:09:58.684Z,18.70
2018-11-21T01:12:42.742Z,19.00
2018-11-21T01:15:08.010Z,18.43
2018-11-21T01:17:33.099Z,19.23
2018-11-21T01:20:17.254Z,18.90
2018-11-21T01:22:42.354Z,20.07
2018-11-21T01:25:08.088Z,18.87
2018-11-21T01:30:24.915Z,19.37
2018-11-21T01:32:49.991Z,19.97
2018-11-21T01:35:15.105Z,19.20
2018-11-21T01:37:40.191Z,19.60
2018-11-21T01:40:05.365Z,19.17
2018-11-21T01:42:30.536Z,18.23
2018-11-21T01:44:55.619Z,20.00
2018-11-21T01:47:39.681Z,20.40
2018-11-21T01:50:04.705Z,18.77
2018-11-21T01:52:29.767Z,20.03
2018-11-21T01:54:54.841Z,19.30
2018-11-21T01:57:38.863Z,20.43
2018-11-21T02:00:04.118Z,19.70
2018-11-21T02:02:29.360Z,20.03
2018-11-21T02:04:54.443Z,20.17
2018-11-21T02:07:19.521Z,20.20
2018-11-21T02:09:44.608Z,19.73
2018-11-21T02:12:09.700Z,18.97
2018-11-21T02:14:34.778Z,20.30
2018-11-21T02:17:18.847Z,20.20
2018-11-21T02:19:43.984Z,20.17
2018-11-21T02:22:09.135Z,19.53
2018-11-21T02:24:34.325Z,19.77
2018-11-21T02:26:59.402Z,20.63
2018-11-21T02:29:24.463Z,19.77
2018-11-21T02:31:49.548Z,19.77
2018-11-21T02:34:14.614Z,18.90
2018-11-21T02:36:51.914Z,20.27
2018-11-21T02:39:17.032Z,19.67
2018-11-21T02:41:42.111Z,20.37
2018-11-21T02:44:07.489Z,20.33
2018-11-21T02:46:51.526Z,20.40
2018-11-21T02:51:53.368Z,21.80
2018-11-21T02:54:18.443Z,20.43
2018-11-21T02:57:40.188Z,19.87
2018-11-21T03:00:34.414Z,20.13
2018-11-21T03:02:59.552Z,20.40
2018-11-21T03:05:24.654Z,20.87
2018-11-21T03:07:50.462Z,21.60
2018-11-21T03:10:34.565Z,22.17
2018-11-21T03:12:59.652Z,21.87
2018-11-21T03:15:24.734Z,21.27
2018-11-21T03:17:49.776Z,22.30
2018-11-21T03:20:14.909Z,22.17
2018-11-21T03:22:40.082Z,22.73
2018-11-21T03:25:05.201Z,21.53
2018-11-21T03:27:30.300Z,23.30
2018-11-21T03:29:55.397Z,22.33
2018-11-21T03:32:20.518Z,22.73
2018-11-21T03:34:45.682Z,22.87
2018-11-21T03:39:47.011Z,21.93
2018-11-21T03:42:12.064Z,22.50
2018-11-21T03:44:37.186Z,23.10
2018-11-21T03:47:13.850Z,21.90
2018-11-21T03:49:57.922Z,22.90
2018-11-21T03:52:23.034Z,22.13
2018-11-21T03:54:48.141Z,22.77
2018-11-21T03:57:25.298Z,22.07
2018-11-21T03:59:50.364Z,22.37
2018-11-21T04:02:15.448Z,23.53
2018-11-21T04:04:40.649Z,23.00
2018-11-21T04:07:05.754Z,21.87
2018-11-21T04:09:49.777Z,22.40
2018-11-21T04:12:14.886Z,22.53
2018-11-21T04:14:59.064Z,21.97
2018-11-21T04:17:24.181Z,21.87
2018-11-21T04:19:49.226Z,22.40
2018-11-21T04:22:33.248Z,21.93
2018-11-21T04:24:58.299Z,20.07
2018-11-21T04:27:42.503Z,22.03
2018-11-21T04:32:45.296Z,21.40
2018-11-21T04:35:10.644Z,20.87
2018-11-21T04:37:35.703Z,20.00
2018-11-21T04:40:00.812Z,20.67
2018-11-21T04:42:25.891Z,20.23
2018-11-21T04:44:51.026Z,21.17
2018-11-21T04:47:16.133Z,21.07
2018-11-21T04:49:41.203Z,20.77
2018-11-21T04:52:06.277Z,20.87
2018-11-21T04:54:31.421Z,20.87
2018-11-21T04:56:56.510Z,20.90
2018-11-21T04:59:21.609Z,20.73
2018-11-21T05:01:46.809Z,20.80
2018-11-21T05:04:11.907Z,20.53
2018-11-21T05:06:37.089Z,21.00
2018-11-21T05:09:02.340Z,20.00
2018-11-21T05:11:27.441Z,20.93
2018-11-21T05:13:52.543Z,19.80
2018-11-21T05:16:17.655Z,20.80
2018-11-21T05:18:42.757Z,19.73
2018-11-21T05:21:07.892Z,20.40
2018-11-21T05:23:51.905Z,20.97
2018-11-21T05:26:17.003Z,21.47
2018-11-21T05:28:42.088Z,20.73
2018-11-21T05:31:07.563Z,20.63
2018-11-21T05:33:32.631Z,20.50
2018-11-21T05:38:34.400Z,21.10
2018-11-21T05:40:59.484Z,20.27
2018-11-21T05:43:24.540Z,20.27
2018-11-21T05:45:49.684Z,19.60
2018-11-21T05:48:14.775Z,19.90
2018-11-21T05:50:39.908Z,20.13
2018-11-21T05:53:04.953Z,20.50
2018-11-21T05:55:30.015Z,19.83
2018-11-21T05:57:55.125Z,19.77
2018-11-21T06:00:20.203Z,20.73
2018-11-21T06:02:45.306Z,19.93
2018-11-21T06:05:11.425Z,20.77
2018-11-21T06:07:36.555Z,20.33
2018-11-21T06:10:01.653Z,20.17
2018-11-21T06:12:34.086Z,19.80
2018-11-21T06:14:59.190Z,21.13
2018-11-21T06:17:24.445Z,19.70
2018-11-21T06:19:49.546Z,20.47
2018-11-21T06:22:14.646Z,20.97
2018-11-21T06:24:39.748Z,20.87
2018-11-21T06:27:04.949Z,19.83
2018-11-21T06:29:30.098Z,20.77
2018-11-21T06:31:55.224Z,19.90
2018-11-21T06:34:20.335Z,20.80
2018-11-21T06:36:45.464Z,22.13
2018-11-21T06:39:10.637Z,21.13
2018-11-21T06:41:54.693Z,19.60
2018-11-21T06:44:38.813Z,20.80
2018-11-21T06:47:03.947Z,21.17
2018-11-21T06:49:29.063Z,20.10
2018-11-21T06:51:54.168Z,20.73
2018-11-21T06:54:38.192Z,20.03
2018-11-21T06:57:22.279Z,19.80
2018-11-21T06:59:47.354Z,21.80
2018-11-21T07:02:12.463Z,20.80
2018-11-21T07:04:37.562Z,21.87
2018-11-21T07:07:02.667Z,21.53
2018-11-21T07:09:27.742Z,21.30
2018-11-21T07:11:52.844Z,21.90
2018-11-21T07:16:57.027Z,21.47
2018-11-21T07:19:41.070Z,21.67
2018-11-21T07:22:17.806Z,21.27
2018-11-21T07:24:42.886Z,20.03
2018-11-21T07:27:26.918Z,21.37
2018-11-21T07:29:52.035Z,20.47
2018-11-21T07:32:17.184Z,21.10
2018-11-21T07:35:01.218Z,21.50
2018-11-21T07:37:26.492Z,21.40
2018-11-21T07:39:51.569Z,20.67
2018-11-21T07:42:16.706Z,20.73
2018-11-21T07:44:41.841Z,20.77
2018-11-21T07:47:06.908Z,20.87
2018-11-21T07:49:32.033Z,20.60
2018-11-21T07:51:57.157Z,22.17
2018-11-21T07:54:22.219Z,23.63
2018-11-21T07:57:25.276Z,21.27
2018-11-21T08:00:28.356Z,21.37
2018-11-21T08:02:53.430Z,20.33
2018-11-21T08:05:26.171Z,21.40
2018-11-21T08:08:09.940Z,21.70
2018-11-21T08:10:53.723Z,21.33
2018-11-21T08:13:37.504Z,20.17
2018-11-21T08:16:40.269Z,21.03
2018-11-21T08:19:15.786Z,21.93
2018-11-21T08:24:35.462Z,21.90
2018-11-21T08:27:19.221Z,20.97
2018-11-21T08:30:03.257Z,22.47
2018-11-21T08:32:28.331Z,21.37
2018-11-21T08:34:53.461Z,22.70
2018-11-21T08:37:18.543Z,21.23
2018-11-21T08:39:43.611Z,21.07
2018-11-21T08:42:08.673Z,22.30
2018-11-21T08:44:52.684Z,22.00
2018-11-21T08:47:17.807Z,21.33
2018-11-21T08:49:42.889Z,21.83
2018-11-21T08:52:07.983Z,22.83
2018-11-21T08:54:33.081Z,21.13
2018-11-21T08:56:58.183Z,21.97
2018-11-21T08:59:23.238Z,21.70
2018-11-21T09:01:48.274Z,21.17
2018-11-21T09:04:13.405Z,22.07
2018-11-21T09:06:38.479Z,21.20
2018-11-21T09:09:03.589Z,22.30
2018-11-21T09:11:30.849Z,22.93
2018-11-21T09:13:55.916Z,20.87
2018-11-21T09:16:20.968Z,21.83
2018-11-21T09:18:46.021Z,21.97
2018-11-21T09:21:11.116Z,21.57
2018-11-21T09:23:55.112Z,21.87
2018-11-21T09:26:39.178Z,21.13
2018-11-21T09:29:04.249Z,21.27
2018-11-21T09:31:29.316Z,21.37
2018-11-21T09:33:54.380Z,20.87
2018-11-21T09:36:19.458Z,22.07
2018-11-21T09:38:44.573Z,21.47
2018-11-21T09:41:09.682Z,21.23
2018-11-21T09:46:11.525Z,21.03
2018-11-21T09:48:36.640Z,21.60
2018-11-21T09:51:01.693Z,22.87
2018-11-21T09:53:26.753Z,22.10
2018-11-21T09:55:51.829Z,21.23
2018-11-21T09:58:16.938Z,21.50
2018-11-21T10:01:20.010Z,21.33
2018-11-21T10:03:45.079Z,20.97
2018-11-21T10:06:30.395Z,20.67
2018-11-21T10:09:09.486Z,20.73
2018-11-21T10:11:53.539Z,20.80
2018-11-21T10:14:18.631Z,20.83
2018-11-21T10:16:43.696Z,20.57
2018-11-21T10:19:08.836Z,20.93
2018-11-21T10:21:35.119Z,21.87
2018-11-21T10:24:00.234Z,21.87
2018-11-21T10:26:25.353Z,20.90
2018-11-21T10:28:51.327Z,21.67
2018-11-21T10:31:16.444Z,20.93
2018-11-21T10:33:41.493Z,20.60
2018-11-21T10:36:06.768Z,20.97
2018-11-21T10:38:31.810Z,21.80
2018-11-21T10:40:56.914Z,21.60
2018-11-21T10:43:21.992Z,21.43
2018-11-21T10:45:47.134Z,22.03
2018-11-21T10:48:12.226Z,21.60
2018-11-21T10:50:37.351Z,20.83
2018-11-21T10:53:02.518Z,21.10
2018-11-21T10:55:27.634Z,21.97
2018-11-21T10:57:52.707Z,21.30
2018-11-21T11:00:36.493Z,21.67
2018-11-21T11:05:56.686Z,21.00
2018-11-21T11:08:40.478Z,20.70
2018-11-21T11:11:24.581Z,20.67
2018-11-21T11:14:27.375Z,21.40
2018-11-21T11:17:11.141Z,21.60
2018-11-21T11:19:45.583Z,22.27
2018-11-21T11:22:20.383Z,20.50
2018-11-21T11:25:04.238Z,21.83
2018-11-21T11:27:48.012Z,22.10
2018-11-21T11:30:31.932Z,20.47
2018-11-21T11:33:15.642Z,20.57
2018-11-21T11:35:59.438Z,21.10
2018-11-21T11:38:43.211Z,21.60
2018-11-21T11:41:27.036Z,20.17
2018-11-21T11:44:10.810Z,21.60
2018-11-21T11:46:54.668Z,20.93
2018-11-21T11:49:38.468Z,22.43
2018-11-21T11:52:22.264Z,20.90
2018-11-21T11:55:06.094Z,21.80
2018-11-21T11:57:49.888Z,21.20
2018-11-21T12:00:33.716Z,22.23
2018-11-21T12:03:36.482Z,21.87
2018-11-21T12:06:20.250Z,21.93
2018-11-21T12:09:23.026Z,21.00
2018-11-21T12:12:06.849Z,20.73
2018-11-21T12:14:50.620Z,22.20
2018-11-21T12:17:34.404Z,21.87
2018-11-21T12:20:18.219Z,21.80
2018-11-21T12:23:01.971Z,23.00
2018-11-21T12:25:45.768Z,22.67
2018-11-21T12:28:48.526Z,22.10
2018-11-21T12:31:32.376Z,21.83
2018-11-21T12:34:16.176Z,21.07
2018-11-21T12:37:00.001Z,21.53
2018-11-21T12:39:43.821Z,22.87
2018-11-21T12:42:27.651Z,21.80
2018-11-21T12:45:11.425Z,22.27
2018-11-21T12:51:13.419Z,21.80
2018-11-21T12:53:57.232Z,21.97
2018-11-21T12:56:41.071Z,21.00
2018-11-21T12:59:25.102Z,21.87
2018-11-21T13:02:27.887Z,21.47
2018-11-21T13:05:10.685Z,21.87
2018-11-21T13:07:54.510Z,22.40
2018-11-21T13:10:38.288Z,21.40
2018-11-21T13:25:07.642Z,22.33
2018-11-21T13:27:51.432Z,21.80
2018-11-21T13:30:54.185Z,23.37
2018-11-21T13:33:37.986Z,22.37
2018-11-21T13:36:21.893Z,22.97
2018-11-21T13:39:05.715Z,22.83
2018-11-21T13:45:07.302Z,22.07
2018-11-21T13:50:46.699Z,22.30
2018-11-21T13:53:30.495Z,22.47
2018-11-21T13:55:55.578Z,22.37
2018-11-21T14:00:56.680Z,21.77
2018-11-21T14:03:21.774Z,22.13
2018-11-21T14:05:46.877Z,22.37
2018-11-21T14:08:11.992Z,22.93
2018-11-21T14:10:37.080Z,21.90
2018-11-21T14:13:02.172Z,22.47
2018-11-21T14:15:27.355Z,22.53
2018-11-21T14:17:52.415Z,22.77
2018-11-21T14:20:17.480Z,23.07
2018-11-21T14:22:42.602Z,21.53
2018-11-21T14:25:09.617Z,21.73
2018-11-21T14:27:34.686Z,22.83
2018-11-21T14:29:59.771Z,23.40
2018-11-21T14:32:24.876Z,22.63
2018-11-21T14:34:49.973Z,23.17
2018-11-21T14:37:34.098Z,23.57
2018-11-21T14:39:59.245Z,23.03
2018-11-21T14:42:24.409Z,23.37
2018-11-21T14:44:49.486Z,23.17
2018-11-21T14:47:16.321Z,23.53
2018-11-21T14:49:41.431Z,23.67
2018-11-21T14:54:50.689Z,23.13
2018-11-21T14:57:34.785Z,22.57
2018-11-21T14:59:59.899Z,22.17
2018-11-21T15:02:25.027Z,22.67
2018-11-21T15:04:50.118Z,23.73
2018-11-21T15:09:51.323Z,24.03
2018-11-21T15:12:16.438Z,23.40
2018-11-21T15:14:41.527Z,22.40
2018-11-21T15:17:06.705Z,22.87
2018-11-21T15:19:31.825Z,22.37
2018-11-21T15:21:57.242Z,22.83
2018-11-21T15:24:22.343Z,23.23
2018-11-21T15:26:47.468Z,23.60
2018-11-21T15:29:12.832Z,22.30
2018-11-21T15:31:37.926Z,22.60
2018-11-21T15:34:02.979Z,22.73
2018-11-21T15:36:47.047Z,22.43
2018-11-21T15:39:31.110Z,21.63
2018-11-21T15:41:56.272Z,23.07
2018-11-21T15:44:21.364Z,23.23
2018-11-21T15:46:46.436Z,24.10
2018-11-21T15:49:11.546Z,23.07
2018-11-21T15:51:36.700Z,24.43
2018-11-21T15:54:02.036Z,22.27
2018-11-21T15:56:27.121Z,22.83
2018-11-21T15:58:52.231Z,23.10
2018-11-21T16:01:17.400Z,24.63
2018-11-21T16:03:42.529Z,24.20
2018-11-21T16:06:07.648Z,23.23
2018-11-21T16:08:32.762Z,23.13
2018-11-21T16:10:57.924Z,23.90
2018-11-21T16:13:23.050Z,22.17
2018-11-21T16:16:07.902Z,23.17
2018-11-21T16:18:33.036Z,23.33
2018-11-21T16:20:58.137Z,23.10
2018-11-21T16:23:23.300Z,23.20
2018-11-21T16:25:48.431Z,23.17
2018-11-21T16:28:13.555Z,23.03
2018-11-21T16:30:38.687Z,24.40
2018-11-21T16:33:03.812Z,23.90
2018-11-21T16:35:28.931Z,23.87
2018-11-21T16:37:54.208Z,25.90
2018-11-21T16:40:21.118Z,24.13
2018-11-21T16:42:46.409Z,24.97
2018-11-21T16:45:30.569Z,24.93
2018-11-21T16:47:55.745Z,23.60
2018-11-21T16:50:21.255Z,24.67
2018-11-21T16:52:46.419Z,24.27
2018-11-21T16:55:13.225Z,25.50
2018-11-21T16:57:57.978Z,23.83
2018-11-21T17:00:24.748Z,25.10
2018-11-21T17:02:49.850Z,25.03
2018-11-21T17:05:16.366Z,25.83
2018-11-21T17:07:42.056Z,24.53
2018-11-21T17:10:29.654Z,24.07
2018-11-21T17:12:54.862Z,25.07
2018-11-21T17:15:21.734Z,26.23
2018-11-21T17:17:47.172Z,24.23
2018-11-21T17:20:18.061Z,24.67
2018-11-21T17:22:43.429Z,25.07
2018-11-21T17:25:12.419Z,25.13
2018-11-21T17:27:37.572Z,23.83
2018-11-21T17:30:02.747Z,24.57
2018-11-21T17:32:27.848Z,25.50
2018-11-21T17:34:52.970Z,24.47
2018-11-21T17:37:18.085Z,25.47
2018-11-21T17:39:43.384Z,26.37
2018-11-21T17:42:08.440Z,25.63
2018-11-21T17:44:33.597Z,26.30
2018-11-21T17:46:58.693Z,27.13
2018-11-21T17:49:23.809Z,26.70
2018-11-21T17:51:48.920Z,26.37
2018-11-21T17:54:14.009Z,26.50
2018-11-21T17:56:39.169Z,27.47
2018-11-21T17:59:04.355Z,26.23
2018-11-21T18:01:29.466Z,26.87
2018-11-21T18:03:54.585Z,26.67
2018-11-21T18:06:19.781Z,27.37
2018-11-21T18:08:44.891Z,26.77
2018-11-21T18:11:10.078Z,27.03
2018-11-21T18:13:35.199Z,27.20
2018-11-21T18:16:00.375Z,26.10
2018-11-21T18:18:26.227Z,26.57
2018-11-21T18:20:51.348Z,27.43
2018-11-21T18:23:16.509Z,26.43
2018-11-21T18:25:43.818Z,26.57
2018-11-21T18:28:09.059Z,27.27
2018-11-21T18:33:12.982Z,27.77
2018-11-21T18:35:38.127Z,26.87
2018-11-21T18:38:03.224Z,26.97
2018-11-21T18:40:29.793Z,28.03
2018-11-21T18:42:55.019Z,27.53
2018-11-21T18:45:23.536Z,28.20
2018-11-21T18:47:49.040Z,27.80
2018-11-21T18:50:15.635Z,27.30
2018-11-21T18:52:40.785Z,27.67
2018-11-21T18:55:07.953Z,27.13
2018-11-21T18:58:11.097Z,27.43
2018-11-21T19:00:55.938Z,26.80
2018-11-21T19:03:21.148Z,28.10
2018-11-21T19:05:58.945Z,27.03
2018-11-21T19:08:24.660Z,26.87
2018-11-21T19:10:50.302Z,26.47
2018-11-21T19:13:15.374Z,27.83
2018-11-21T19:15:40.506Z,26.77
2018-11-21T19:18:05.845Z,27.50
2018-11-21T19:20:31.060Z,27.30
2018-11-21T19:22:56.175Z,28.80
2018-11-21T19:25:21.359Z,26.37
2018-11-21T19:27:46.534Z,26.80
2018-11-21T19:30:13.541Z,27.10
2018-11-21T19:32:58.400Z,26.97
2018-11-21T19:35:41.754Z,26.67
2018-11-21T19:38:07.072Z,25.90
2018-11-21T19:40:32.315Z,26.70
2018-11-21T19:42:57.470Z,27.07
2018-11-21T19:45:22.657Z,26.60
2018-11-21T19:47:48.311Z,27.30
2018-11-21T19:50:14.793Z,26.27
2018-11-21T19:52:40.896Z,28.30
2018-11-21T19:57:44.424Z,25.23
2018-11-21T20:00:31.902Z,25.17
2018-11-21T20:02:57.051Z,27.17
2018-11-21T20:05:22.380Z,26.70
2018-11-21T20:07:47.466Z,27.10
2018-11-21T20:10:13.723Z,25.47
2018-11-21T20:12:40.051Z,25.53
2018-11-21T20:15:04.638Z,25.23
2018-11-21T20:17:29.871Z,25.90
2018-11-21T20:19:55.032Z,26.07
2018-11-21T20:22:20.246Z,26.00
2018-11-21T20:24:45.394Z,27.43
2018-11-21T20:27:10.574Z,26.57
2018-11-21T20:29:35.680Z,27.00
2018-11-21T20:32:00.849Z,25.43
2018-11-21T20:34:25.970Z,26.77
2018-11-21T20:36:51.160Z,27.30
2018-11-21T20:41:52.995Z,26.77
2018-11-21T20:44:18.139Z,28.23
2018-11-21T20:46:43.322Z,26.60
2018-11-21T20:49:11.503Z,27.43
2018-11-21T20:51:34.051Z,28.23
2018-11-21T20:56:36.007Z,26.17
2018-11-21T20:59:01.158Z,26.73
2018-11-21T21:01:26.260Z,27.83
2018-11-21T21:03:51.412Z,26.50
2018-11-21T21:06:16.529Z,27.53
2018-11-21T21:08:41.711Z,26.47
2018-11-21T21:11:06.996Z,27.27
2018-11-21T21:13:32.654Z,27.17
2018-11-21T21:15:57.722Z,27.03
2018-11-21T21:18:22.817Z,26.77
2018-11-21T21:20:47.934Z,26.33
2018-11-21T21:23:13.131Z,26.30
2018-11-21T21:25:38.238Z,26.43
2018-11-21T21:28:03.350Z,25.30
2018-11-21T21:30:29.968Z,26.17
2018-11-21T21:32:55.068Z,26.20
2018-11-21T21:35:20.813Z,26.23
2018-11-21T21:37:45.943Z,26.10
2018-11-21T21:40:13.066Z,24.97
2018-11-21T21:42:38.538Z,25.70
2018-11-21T21:45:03.668Z,25.20
2018-11-21T21:47:47.746Z,25.67
2018-11-21T21:50:13.745Z,25.93
2018-11-21T21:52:38.846Z,26.40
2018-11-21T21:55:04.112Z,25.13
2018-11-21T21:57:29.390Z,26.10
2018-11-21T21:59:54.502Z,24.67
2018-11-21T22:02:19.589Z,25.10
2018-11-21T22:04:44.707Z,24.90
2018-11-21T22:07:09.786Z,24.53
2018-11-21T22:09:34.915Z,24.90
2018-11-21T22:12:00.008Z,25.17
2018-11-21T22:14:25.113Z,25.70
2018-11-21T22:16:50.210Z,25.00
2018-11-21T22:19:15.263Z,24.90
2018-11-21T22:21:40.386Z,23.40
2018-11-21T22:24:05.466Z,24.20
2018-11-21T22:26:30.554Z,24.33
2018-11-21T22:28:55.615Z,24.43
2018-11-21T22:31:20.713Z,24.77
2018-11-21T22:33:45.794Z,25.13
2018-11-21T22:36:29.870Z,25.63
2018-11-21T22:38:54.958Z,24.30
2018-11-21T22:41:20.044Z,25.20
2018-11-21T22:46:24.291Z,23.83
2018-11-21T22:48:49.398Z,24.37
2018-11-21T22:51:14.475Z,24.73
2018-11-21T22:53:39.601Z,24.07
2018-11-21T22:56:04.691Z,23.53
2018-11-21T22:58:48.777Z,24.07
2018-11-21T23:01:14.175Z,25.03
2018-11-21T23:03:39.287Z,24.20
2018-11-21T23:06:04.388Z,24.97
2018-11-21T23:08:29.484Z,25.40
2018-11-21T23:10:54.577Z,23.57
2018-11-21T23:13:19.730Z,24.33
2018-11-21T23:15:44.797Z,23.50
2018-11-21T23:18:09.980Z,24.13
2018-11-21T23:20:35.084Z,24.83
2018-11-21T23:23:19.093Z,24.93
2018-11-21T23:25:44.194Z,24.53
2018-11-21T23:28:09.269Z,25.70
2018-11-21T23:30:53.360Z,24.73
2018-11-21T23:33:18.433Z,24.67
2018-11-21T23:35:43.615Z,26.33
2018-11-21T23:38:08.788Z,25.80
2018-11-21T23:43:29.662Z,25.23
2018-11-21T23:45:54.775Z,25.67
2018-11-21T23:48:19.899Z,24.37
2018-11-21T23:50:44.979Z,26.70
2018-11-21T23:53:10.077Z,25.90
2018-11-21T23:55:35.206Z,26.37
2018-11-21T23:58:00.316Z,24.80
